Details for Ryanair at EGPF




Go Back


Latest METAR
Local Time

EGPF 211420Z AUTO VRB03KT 9999 NCD 07/02 Q1028

21/02/2018, 14:55:02

Description
Results
Ryanair Logo
Number of Pilots based at EGPF
2 Pilots Based here
Number of Ryanair Flights Departed from EGPF
7 Flights Departed
Number of Ryanair Flights Arrived at EGPF
11 Flights Arrived
Number of Ryanair Schedules Departing from EGPF
37 Schedules
Number of Ryanair Schedules Arriving at EGPF
35 Schedules
Number of Ryanair Schedules Departing from EGPF availible today
12 Schedules Today
Number of Ryanair Schedules Arriving at EGPF availible today
12 Schedules Today
Average Landing Rate at EGPF
-214 fpm
Ryanair Average Landing Rate at EGPF
-220 fpm
Total Fuel Purchased at EGPF by Ryanair
48,229.58 kgs / 106,326.93 lbs

Pilots Based at EGPF


Pilot ID
Pilot Name
Pilot Rank
No. of Flights
No. of Flying Hours
Renaat Meeuws
32
54.26
Thomas Bell
304
513.19
Content